Terminal Aerodrome Forecast
Issued by NWS

Home | Current Version | Previous Version | Text Only | Print | Product List | Glossary On
Versions: 1 2 3 4 5 6 7 8 9 10 11 12 13 14 15 16 17 18 19 20 21 22 23 24 25 26 27 28
000
FTUS44 KFWD 262340
TAFFTW
TAF
KFTW 262340Z 2700/2724 17015G25KT P6SM VCTS BKN050CB
      TEMPO 2700/2704 3SM TSRA BKN020CB
     FM270400 17017KT P6SM SCT045 SCT200
     FM270600 18016KT P6SM BKN012
     FM270900 25008KT P6SM BKN008
     FM271300 31010KT P6SM BKN016
     FM271600 33009KT P6SM SCT020
     FM272100 01004KT P6SM FEW250=

USA.gov is the U.S. government's official web portal to all federal, state and local government web resources and services.